Магнитогорск, Россия

22 10, 2014 09:08 YEKT (GMT +0600)
Magnitogorsk | Change Station
CLOSE
Current Station
Аэропорт
Location: MAGNITOGORSK,
Высота над уровнем моря: 1430 ft
Ближайшие Погодные Станции

В.н.у.м. 1430 ft 53.39 °N, 58.76 °E | Updated 8 minutes ago

Light Freezing Drizzle
легкая изморось
32 °F
Ощущается Как 32 °F
С
2
Ветер переменчевый Ветер от переменчевый

Сегодня
Высокий -- | Низкий -- °F
--% Вероятн. осадков
Вчера
Высокий -- | Низкий -- °F
Precip. -- дюймов
8:42 AM 6:52 PM
Убывающий полумесяц, 3% visible
Давление 29.53 дюймов
Видимость 0.3 милиь
Облачность
Точка Росы 30 °F
Влажность воздуха 93%
Дождь 0.00 дюймов
Глубина снега Нет в наличии.
УФ Нет в наличии.
Пыльца Нет в наличии.
Качество воздуха Нет в наличии.
Flu Activity Нет в наличии.
METAR USCM 220300Z VRB01MPS 0500 R01/0500N FZDZ FZFG VV001 M00/M01 Q1000 TEMPO 0700 FZDZ FZFG 01690250 RMK QFE712

More Conditions Fewer Conditions

Давление 29.53 дюймов
Видимость 0.3 милиь
Облачность
Точка Росы 30 °F
Влажность воздуха 93%
Дождь 0.00 дюймов
Глубина снега Нет в наличии.
УФ Нет в наличии.
Пыльца Нет в наличии.
Качество воздуха Нет в наличии.
Flu Activity Нет в наличии.
METAR USCM 220300Z VRB01MPS 0500 R01/0500N FZDZ FZFG VV001 M00/M01 Q1000 TEMPO 0700 FZDZ FZFG 01690250 RMK QFE712

More Conditions Fewer Conditions

10-Day Weather Forecast

Almanac

Астрономические явления

Oct. 22, 2014 Восход Закат
Настоящее время 8:42 AM YEKT 6:52 PM YEKT
Гражданские сумерки 8:07 AM YEKT 7:28 PM YEKT
Навигационные сумерки 7:26 AM YEKT 8:08 PM YEKT
Астрономические сумерки 6:46 AM YEKT 8:48 PM YEKT
Луна 6:46 AM YEKT 6:15 PM YEKT
Длительность светового времени 11h 21m
Продолжительность Дня
10h 09m
Tomorrow will be 4m 1s shorter.
Убывающий полумесяц, 3% of the Moon is Illuminated
Окт 21
Убывающий полумесяц
Окт 23
Новая
Окт 30
Первая четверть
Нояб 6
Полнолуние
Нояб 14
Четвертая четверть

Вчерашние Экстремумы

Country Highs Country Lows

Community

WunderPhotos

Upload Photos

1,763,866 фотографии загружены!

Nearby

Качество воздуха

Not available.

Глубина Снега

Not available.

Сейсмическая активность

Город Distance Mag. Time & Date
No recent earthquake activity has been reported nearby.
Minimum magnitude displayed is 2.5.

Температура Прибрежных Вод

Место Температура
Нет зарегистрированных станций

Ближайшие Погодные Станции